Portada
METAR-TAF:

METAR-TAF

Aeroports :

MidCoast Regional Airport / Wright Army Airfield

Hinesville, Geòrgia, Estats Units d'Amèrica

latitud: 31-53N, longitud: 081-34W, altitud: 14 m

Observació

L'informe es va fer fa 47 minuts, a les 21:56 UTC
Vent 8 kt del Est
Temperatura 8°C
Humitat 39%
Pressió 1025 hPa
Visibilitat: 16.1 km
Cel clar

METAR: KLHW 132156Z AUTO 09008KT 10SM CLR 08/M05 A3027 RMK AO2 SLP254 T00821046 $

Hora: 17:43 (22:43 UTC)


TAF: manca

Observacions i pronòstics meteorològics de més de 4000 aeroports (METAR i TAF).

Les estacions disponibles són els punts grocs i vermells al mapa.

Posi el ratolí al punt desitjat per veure el nom de l'estació.

Feu clic per veure les observacions i els pronòstics meteorològics.

Per canviar el mapa: feu clic els botons verds amb una creu de color negre per apropar; al botó verd amb un guió per allunyar la imatge; o en les fletxes verdes per a mapes adjacents.


METAR-TAF: